sensor_id;sensor_type;location;lat;lon;timestamp;P1;durP1;ratioP1;P2;durP2;ratioP2
17818;SDS011;9034;50.284;19.310;2023-01-19T00:00:38;98.45;;;47.88;;
17818;SDS011;9034;50.284;19.310;2023-01-19T00:01:40;85.32;;;44.75;;
17818;SDS011;9034;50.284;19.310;2023-01-19T00:02:43;81.80;;;42.70;;
17818;SDS011;9034;50.284;19.310;2023-01-19T00:03:48;85.97;;;45.13;;
17818;SDS011;9034;50.284;19.310;2023-01-19T00:04:51;79.40;;;43.47;;
17818;SDS011;9034;50.284;19.310;2023-01-19T00:05:52;75.13;;;40.53;;
17818;SDS011;9034;50.284;19.310;2023-01-19T00:06:57;78.60;;;41.90;;
17818;SDS011;9034;50.284;19.310;2023-01-19T00:07:58;84.90;;;44.35;;
17818;SDS011;9034;50.284;19.310;2023-01-19T00:09:14;82.28;;;42.72;;
17818;SDS011;9034;50.284;19.310;2023-01-19T00:10:17;79.95;;;42.08;;
17818;SDS011;9034;50.284;19.310;2023-01-19T00:11:19;78.43;;;41.95;;
17818;SDS011;9034;50.284;19.310;2023-01-19T00:12:22;88.60;;;46.08;;
17818;SDS011;9034;50.284;19.310;2023-01-19T00:13:24;86.30;;;45.05;;
17818;SDS011;9034;50.284;19.310;2023-01-19T00:14:27;83.25;;;44.65;;
17818;SDS011;9034;50.284;19.310;2023-01-19T00:15:29;86.63;;;47.25;;
17818;SDS011;9034;50.284;19.310;2023-01-19T00:16:32;82.63;;;44.85;;
17818;SDS011;9034;50.284;19.310;2023-01-19T00:17:34;74.63;;;41.58;;
17818;SDS011;9034;50.284;19.310;2023-01-19T00:18:36;76.55;;;40.78;;
17818;SDS011;9034;50.284;19.310;2023-01-19T00:19:38;72.40;;;39.85;;
17818;SDS011;9034;50.284;19.310;2023-01-19T00:20:41;74.32;;;40.83;;
17818;SDS011;9034;50.284;19.310;2023-01-19T00:21:45;78.43;;;42.28;;
17818;SDS011;9034;50.284;19.310;2023-01-19T00:22:49;83.60;;;41.58;;
17818;SDS011;9034;50.284;19.310;2023-01-19T00:23:51;82.68;;;43.72;;
17818;SDS011;9034;50.284;19.310;2023-01-19T00:24:54;81.82;;;43.60;;
17818;SDS011;9034;50.284;19.310;2023-01-19T00:25:56;83.93;;;43.55;;
17818;SDS011;9034;50.284;19.310;2023-01-19T00:26:59;74.68;;;43.83;;
17818;SDS011;9034;50.284;19.310;2023-01-19T00:28:02;75.97;;;41.90;;
17818;SDS011;9034;50.284;19.310;2023-01-19T00:29:05;69.85;;;40.42;;
17818;SDS011;9034;50.284;19.310;2023-01-19T00:30:09;73.68;;;40.60;;
17818;SDS011;9034;50.284;19.310;2023-01-19T00:31:12;68.35;;;40.47;;
17818;SDS011;9034;50.284;19.310;2023-01-19T00:32:14;74.85;;;39.88;;
17818;SDS011;9034;50.284;19.310;2023-01-19T00:33:18;70.38;;;40.50;;
17818;SDS011;9034;50.284;19.310;2023-01-19T00:34:20;72.25;;;40.75;;
17818;SDS011;9034;50.284;19.310;2023-01-19T00:35:22;78.82;;;43.08;;
17818;SDS011;9034;50.284;19.310;2023-01-19T00:36:25;82.00;;;43.50;;
17818;SDS011;9034;50.284;19.310;2023-01-19T00:37:27;73.65;;;40.83;;
17818;SDS011;9034;50.284;19.310;2023-01-19T00:38:31;72.13;;;41.47;;
17818;SDS011;9034;50.284;19.310;2023-01-19T00:39:33;83.68;;;44.42;;
17818;SDS011;9034;50.284;19.310;2023-01-19T00:40:36;73.43;;;41.83;;
17818;SDS011;9034;50.284;19.310;2023-01-19T00:41:38;70.05;;;40.13;;
17818;SDS011;9034;50.284;19.310;2023-01-19T00:42:58;69.25;;;37.05;;
17818;SDS011;9034;50.284;19.310;2023-01-19T00:44:02;63.17;;;37.72;;
17818;SDS011;9034;50.284;19.310;2023-01-19T00:45:04;61.30;;;36.00;;
17818;SDS011;9034;50.284;19.310;2023-01-19T00:46:07;70.38;;;39.17;;
17818;SDS011;9034;50.284;19.310;2023-01-19T00:47:10;73.65;;;38.35;;
17818;SDS011;9034;50.284;19.310;2023-01-19T00:48:12;69.30;;;39.15;;
17818;SDS011;9034;50.284;19.310;2023-01-19T00:49:15;63.63;;;35.97;;
17818;SDS011;9034;50.284;19.310;2023-01-19T00:50:17;69.63;;;36.65;;
17818;SDS011;9034;50.284;19.310;2023-01-19T00:51:19;62.45;;;34.47;;
17818;SDS011;9034;50.284;19.310;2023-01-19T00:52:21;66.70;;;37.65;;
17818;SDS011;9034;50.284;19.310;2023-01-19T00:53:24;70.55;;;38.58;;
17818;SDS011;9034;50.284;19.310;2023-01-19T00:54:27;61.15;;;36.40;;
17818;SDS011;9034;50.284;19.310;2023-01-19T00:55:30;72.10;;;38.13;;
17818;SDS011;9034;50.284;19.310;2023-01-19T00:56:33;64.82;;;36.45;;
17818;SDS011;9034;50.284;19.310;2023-01-19T00:57:36;63.72;;;36.53;;
17818;SDS011;9034;50.284;19.310;2023-01-19T00:58:40;64.50;;;36.47;;
17818;SDS011;9034;50.284;19.310;2023-01-19T00:59:42;63.92;;;35.30;;
17818;SDS011;9034;50.284;19.310;2023-01-19T01:00:44;69.55;;;37.72;;
17818;SDS011;9034;50.284;19.310;2023-01-19T01:01:47;68.22;;;38.42;;
17818;SDS011;9034;50.284;19.310;2023-01-19T01:02:50;64.78;;;38.40;;
17818;SDS011;9034;50.284;19.310;2023-01-19T01:03:54;67.38;;;37.50;;
17818;SDS011;9034;50.284;19.310;2023-01-19T01:04:56;65.28;;;36.33;;
17818;SDS011;9034;50.284;19.310;2023-01-19T01:06:03;62.65;;;37.35;;
17818;SDS011;9034;50.284;19.310;2023-01-19T01:07:08;68.35;;;38.58;;
17818;SDS011;9034;50.284;19.310;2023-01-19T01:08:10;79.38;;;42.30;;
17818;SDS011;9034;50.284;19.310;2023-01-19T01:09:13;66.57;;;38.05;;
17818;SDS011;9034;50.284;19.310;2023-01-19T01:10:17;61.08;;;35.88;;
17818;SDS011;9034;50.284;19.310;2023-01-19T01:11:21;68.03;;;37.63;;
17818;SDS011;9034;50.284;19.310;2023-01-19T01:12:23;74.78;;;39.22;;
17818;SDS011;9034;50.284;19.310;2023-01-19T01:13:26;74.78;;;41.25;;
17818;SDS011;9034;50.284;19.310;2023-01-19T01:14:30;71.85;;;39.00;;
17818;SDS011;9034;50.284;19.310;2023-01-19T01:15:32;68.57;;;38.65;;
17818;SDS011;9034;50.284;19.310;2023-01-19T01:16:35;75.72;;;39.72;;
17818;SDS011;9034;50.284;19.310;2023-01-19T01:17:37;66.50;;;36.25;;
17818;SDS011;9034;50.284;19.310;2023-01-19T01:18:46;68.28;;;38.30;;
17818;SDS011;9034;50.284;19.310;2023-01-19T01:19:49;67.40;;;38.97;;
17818;SDS011;9034;50.284;19.310;2023-01-19T01:20:52;70.15;;;37.25;;
17818;SDS011;9034;50.284;19.310;2023-01-19T01:21:56;86.28;;;44.90;;
17818;SDS011;9034;50.284;19.310;2023-01-19T01:22:59;73.90;;;39.33;;
17818;SDS011;9034;50.284;19.310;2023-01-19T01:24:01;74.60;;;41.60;;
17818;SDS011;9034;50.284;19.310;2023-01-19T01:25:05;87.97;;;45.35;;
17818;SDS011;9034;50.284;19.310;2023-01-19T01:26:09;77.40;;;42.40;;
17818;SDS011;9034;50.284;19.310;2023-01-19T01:27:12;76.10;;;40.10;;
17818;SDS011;9034;50.284;19.310;2023-01-19T01:28:13;83.55;;;43.13;;
17818;SDS011;9034;50.284;19.310;2023-01-19T01:29:16;77.05;;;42.25;;
17818;SDS011;9034;50.284;19.310;2023-01-19T01:30:18;72.63;;;39.40;;
17818;SDS011;9034;50.284;19.310;2023-01-19T01:31:21;66.22;;;38.63;;
17818;SDS011;9034;50.284;19.310;2023-01-19T01:32:23;65.53;;;38.22;;
17818;SDS011;9034;50.284;19.310;2023-01-19T01:33:26;63.05;;;36.55;;
17818;SDS011;9034;50.284;19.310;2023-01-19T01:34:42;66.70;;;35.80;;
17818;SDS011;9034;50.284;19.310;2023-01-19T01:35:44;61.88;;;36.42;;
17818;SDS011;9034;50.284;19.310;2023-01-19T01:36:46;62.50;;;36.88;;
17818;SDS011;9034;50.284;19.310;2023-01-19T01:37:49;71.15;;;38.97;;
17818;SDS011;9034;50.284;19.310;2023-01-19T01:38:51;67.53;;;37.03;;
17818;SDS011;9034;50.284;19.310;2023-01-19T01:39:54;65.95;;;37.75;;
17818;SDS011;9034;50.284;19.310;2023-01-19T01:40:56;63.72;;;36.72;;
17818;SDS011;9034;50.284;19.310;2023-01-19T01:42:01;70.78;;;38.95;;
17818;SDS011;9034;50.284;19.310;2023-01-19T01:43:03;61.47;;;37.50;;
17818;SDS011;9034;50.284;19.310;2023-01-19T01:45:49;62.63;;;34.72;;
17818;SDS011;9034;50.284;19.310;2023-01-19T01:46:51;64.63;;;35.95;;
17818;SDS011;9034;50.284;19.310;2023-01-19T01:47:54;61.35;;;36.03;;
17818;SDS011;9034;50.284;19.310;2023-01-19T01:49:00;63.75;;;37.85;;
17818;SDS011;9034;50.284;19.310;2023-01-19T01:50:07;70.47;;;38.33;;
17818;SDS011;9034;50.284;19.310;2023-01-19T01:51:12;74.22;;;38.75;;
17818;SDS011;9034;50.284;19.310;2023-01-19T01:52:27;75.78;;;39.13;;
17818;SDS011;9034;50.284;19.310;2023-01-19T01:53:30;80.38;;;42.15;;
17818;SDS011;9034;50.284;19.310;2023-01-19T01:54:34;80.40;;;40.28;;
17818;SDS011;9034;50.284;19.310;2023-01-19T01:55:36;63.25;;;39.67;;
17818;SDS011;9034;50.284;19.310;2023-01-19T01:56:42;62.85;;;35.95;;
17818;SDS011;9034;50.284;19.310;2023-01-19T01:57:46;59.60;;;35.20;;
17818;SDS011;9034;50.284;19.310;2023-01-19T01:58:51;64.22;;;37.05;;
17818;SDS011;9034;50.284;19.310;2023-01-19T01:59:54;82.65;;;43.28;;
17818;SDS011;9034;50.284;19.310;2023-01-19T02:00:58;77.38;;;39.72;;
17818;SDS011;9034;50.284;19.310;2023-01-19T02:02:20;69.47;;;37.67;;
17818;SDS011;9034;50.284;19.310;2023-01-19T02:03:42;66.97;;;37.97;;
17818;SDS011;9034;50.284;19.310;2023-01-19T02:04:45;67.40;;;38.00;;
17818;SDS011;9034;50.284;19.310;2023-01-19T02:05:50;70.32;;;38.17;;
17818;SDS011;9034;50.284;19.310;2023-01-19T02:06:52;77.05;;;42.72;;
17818;SDS011;9034;50.284;19.310;2023-01-19T02:08:14;68.80;;;38.58;;
17818;SDS011;9034;50.284;19.310;2023-01-19T02:09:35;71.07;;;38.58;;
17818;SDS011;9034;50.284;19.310;2023-01-19T02:10:56;68.82;;;38.45;;
17818;SDS011;9034;50.284;19.310;2023-01-19T02:12:17;67.93;;;38.38;;
17818;SDS011;9034;50.284;19.310;2023-01-19T02:13:40;73.20;;;38.63;;
17818;SDS011;9034;50.284;19.310;2023-01-19T02:14:45;78.18;;;40.53;;
17818;SDS011;9034;50.284;19.310;2023-01-19T02:15:48;73.05;;;38.70;;
17818;SDS011;9034;50.284;19.310;2023-01-19T02:16:53;67.15;;;39.33;;
17818;SDS011;9034;50.284;19.310;2023-01-19T02:17:54;76.57;;;38.25;;
17818;SDS011;9034;50.284;19.310;2023-01-19T02:18:58;67.32;;;38.53;;
17818;SDS011;9034;50.284;19.310;2023-01-19T02:20:01;85.05;;;47.95;;
17818;SDS011;9034;50.284;19.310;2023-01-19T02:21:07;109.47;;;60.63;;
17818;SDS011;9034;50.284;19.310;2023-01-19T02:22:13;103.63;;;57.70;;
17818;SDS011;9034;50.284;19.310;2023-01-19T02:23:33;99.45;;;51.53;;
17818;SDS011;9034;50.284;19.310;2023-01-19T02:24:38;90.15;;;45.90;;
17818;SDS011;9034;50.284;19.310;2023-01-19T02:25:41;84.30;;;46.50;;
17818;SDS011;9034;50.284;19.310;2023-01-19T02:26:44;80.38;;;45.28;;
17818;SDS011;9034;50.284;19.310;2023-01-19T02:27:49;77.78;;;45.70;;
17818;SDS011;9034;50.284;19.310;2023-01-19T02:28:52;93.55;;;52.42;;
17818;SDS011;9034;50.284;19.310;2023-01-19T02:29:58;80.45;;;46.10;;
17818;SDS011;9034;50.284;19.310;2023-01-19T02:31:00;87.20;;;48.17;;
17818;SDS011;9034;50.284;19.310;2023-01-19T02:32:03;78.95;;;48.33;;
17818;SDS011;9034;50.284;19.310;2023-01-19T02:33:06;84.78;;;50.25;;
17818;SDS011;9034;50.284;19.310;2023-01-19T02:34:09;89.63;;;51.58;;
17818;SDS011;9034;50.284;19.310;2023-01-19T02:35:12;88.75;;;50.67;;
17818;SDS011;9034;50.284;19.310;2023-01-19T02:36:16;93.82;;;52.78;;
17818;SDS011;9034;50.284;19.310;2023-01-19T02:37:21;87.72;;;51.15;;
17818;SDS011;9034;50.284;19.310;2023-01-19T02:38:25;88.10;;;50.13;;
17818;SDS011;9034;50.284;19.310;2023-01-19T02:39:30;93.65;;;52.15;;
17818;SDS011;9034;50.284;19.310;2023-01-19T02:40:35;84.43;;;47.67;;
17818;SDS011;9034;50.284;19.310;2023-01-19T02:41:40;89.32;;;48.67;;
17818;SDS011;9034;50.284;19.310;2023-01-19T02:42:45;86.57;;;47.33;;
17818;SDS011;9034;50.284;19.310;2023-01-19T02:43:49;76.72;;;45.17;;
17818;SDS011;9034;50.284;19.310;2023-01-19T02:44:52;78.95;;;43.25;;
17818;SDS011;9034;50.284;19.310;2023-01-19T02:45:55;81.28;;;46.60;;
17818;SDS011;9034;50.284;19.310;2023-01-19T02:46:58;79.53;;;43.83;;
17818;SDS011;9034;50.284;19.310;2023-01-19T02:48:00;82.20;;;43.40;;
17818;SDS011;9034;50.284;19.310;2023-01-19T02:49:05;71.22;;;40.50;;
17818;SDS011;9034;50.284;19.310;2023-01-19T02:51:47;71.80;;;39.85;;
17818;SDS011;9034;50.284;19.310;2023-01-19T02:52:49;64.93;;;38.75;;
17818;SDS011;9034;50.284;19.310;2023-01-19T02:54:12;71.93;;;41.40;;
17818;SDS011;9034;50.284;19.310;2023-01-19T02:55:22;67.63;;;39.83;;
17818;SDS011;9034;50.284;19.310;2023-01-19T02:56:36;75.20;;;40.22;;
17818;SDS011;9034;50.284;19.310;2023-01-19T02:57:43;72.50;;;38.58;;
17818;SDS011;9034;50.284;19.310;2023-01-19T02:58:52;71.18;;;39.35;;
17818;SDS011;9034;50.284;19.310;2023-01-19T03:00:00;65.72;;;38.42;;
17818;SDS011;9034;50.284;19.310;2023-01-19T03:01:09;79.25;;;40.05;;
17818;SDS011;9034;50.284;19.310;2023-01-19T03:02:17;71.22;;;38.92;;
17818;SDS011;9034;50.284;19.310;2023-01-19T03:03:29;68.18;;;37.85;;
17818;SDS011;9034;50.284;19.310;2023-01-19T03:04:34;71.00;;;37.33;;
17818;SDS011;9034;50.284;19.310;2023-01-19T03:05:48;67.28;;;37.30;;
17818;SDS011;9034;50.284;19.310;2023-01-19T03:06:55;69.43;;;36.63;;
17818;SDS011;9034;50.284;19.310;2023-01-19T03:08:05;68.85;;;36.25;;
17818;SDS011;9034;50.284;19.310;2023-01-19T03:09:10;63.20;;;36.08;;
17818;SDS011;9034;50.284;19.310;2023-01-19T03:10:14;65.60;;;38.00;;
17818;SDS011;9034;50.284;19.310;2023-01-19T03:11:20;64.68;;;36.33;;
17818;SDS011;9034;50.284;19.310;2023-01-19T03:12:26;65.70;;;38.13;;
17818;SDS011;9034;50.284;19.310;2023-01-19T03:13:33;70.15;;;37.03;;
17818;SDS011;9034;50.284;19.310;2023-01-19T03:14:44;62.80;;;36.50;;
17818;SDS011;9034;50.284;19.310;2023-01-19T03:15:48;65.72;;;37.35;;
17818;SDS011;9034;50.284;19.310;2023-01-19T03:16:52;66.32;;;36.38;;
17818;SDS011;9034;50.284;19.310;2023-01-19T03:17:56;67.55;;;37.78;;
17818;SDS011;9034;50.284;19.310;2023-01-19T03:19:02;70.53;;;40.75;;
17818;SDS011;9034;50.284;19.310;2023-01-19T03:20:08;72.93;;;40.75;;
17818;SDS011;9034;50.284;19.310;2023-01-19T03:21:14;76.50;;;39.13;;
17818;SDS011;9034;50.284;19.310;2023-01-19T03:22:20;76.82;;;38.92;;
17818;SDS011;9034;50.284;19.310;2023-01-19T03:23:25;70.55;;;40.42;;
17818;SDS011;9034;50.284;19.310;2023-01-19T03:24:32;71.07;;;37.58;;
17818;SDS011;9034;50.284;19.310;2023-01-19T03:25:38;54.08;;;32.67;;
17818;SDS011;9034;50.284;19.310;2023-01-19T03:26:46;56.85;;;32.35;;
17818;SDS011;9034;50.284;19.310;2023-01-19T03:27:50;53.63;;;32.83;;
17818;SDS011;9034;50.284;19.310;2023-01-19T03:28:55;56.80;;;33.22;;
17818;SDS011;9034;50.284;19.310;2023-01-19T03:30:00;64.72;;;38.40;;
17818;SDS011;9034;50.284;19.310;2023-01-19T03:31:09;74.65;;;38.08;;
17818;SDS011;9034;50.284;19.310;2023-01-19T03:32:14;70.85;;;37.30;;
17818;SDS011;9034;50.284;19.310;2023-01-19T03:33:19;60.55;;;35.35;;
17818;SDS011;9034;50.284;19.310;2023-01-19T03:34:23;58.65;;;34.13;;
17818;SDS011;9034;50.284;19.310;2023-01-19T03:35:27;68.28;;;35.78;;
17818;SDS011;9034;50.284;19.310;2023-01-19T03:36:31;62.08;;;34.13;;
17818;SDS011;9034;50.284;19.310;2023-01-19T03:37:36;68.82;;;36.00;;
17818;SDS011;9034;50.284;19.310;2023-01-19T03:38:40;62.63;;;36.58;;
17818;SDS011;9034;50.284;19.310;2023-01-19T03:39:44;85.35;;;42.15;;
17818;SDS011;9034;50.284;19.310;2023-01-19T03:40:46;78.38;;;41.85;;
17818;SDS011;9034;50.284;19.310;2023-01-19T03:41:51;73.85;;;39.17;;
17818;SDS011;9034;50.284;19.310;2023-01-19T03:42:54;73.38;;;40.45;;
17818;SDS011;9034;50.284;19.310;2023-01-19T03:43:58;74.15;;;40.25;;
17818;SDS011;9034;50.284;19.310;2023-01-19T03:45:01;73.47;;;40.20;;
17818;SDS011;9034;50.284;19.310;2023-01-19T03:46:04;68.25;;;37.47;;
17818;SDS011;9034;50.284;19.310;2023-01-19T03:47:07;65.25;;;38.40;;
17818;SDS011;9034;50.284;19.310;2023-01-19T03:48:30;66.45;;;37.28;;
17818;SDS011;9034;50.284;19.310;2023-01-19T03:49:32;66.32;;;35.67;;
17818;SDS011;9034;50.284;19.310;2023-01-19T03:50:36;70.53;;;36.60;;
17818;SDS011;9034;50.284;19.310;2023-01-19T03:51:38;66.72;;;38.22;;
17818;SDS011;9034;50.284;19.310;2023-01-19T03:52:41;67.13;;;36.25;;
17818;SDS011;9034;50.284;19.310;2023-01-19T03:53:43;71.70;;;36.15;;
17818;SDS011;9034;50.284;19.310;2023-01-19T03:54:46;60.03;;;35.53;;
17818;SDS011;9034;50.284;19.310;2023-01-19T03:55:49;61.55;;;35.70;;
17818;SDS011;9034;50.284;19.310;2023-01-19T03:56:55;68.07;;;37.03;;
17818;SDS011;9034;50.284;19.310;2023-01-19T03:57:57;58.33;;;35.15;;
17818;SDS011;9034;50.284;19.310;2023-01-19T03:59:00;62.70;;;34.67;;
17818;SDS011;9034;50.284;19.310;2023-01-19T04:00:02;60.22;;;34.55;;
17818;SDS011;9034;50.284;19.310;2023-01-19T04:01:12;60.92;;;34.15;;
17818;SDS011;9034;50.284;19.310;2023-01-19T04:02:15;58.65;;;34.25;;
17818;SDS011;9034;50.284;19.310;2023-01-19T04:03:18;66.07;;;34.42;;
17818;SDS011;9034;50.284;19.310;2023-01-19T04:04:20;56.25;;;33.13;;
17818;SDS011;9034;50.284;19.310;2023-01-19T04:05:23;64.20;;;33.80;;
17818;SDS011;9034;50.284;19.310;2023-01-19T04:06:25;64.70;;;34.10;;
17818;SDS011;9034;50.284;19.310;2023-01-19T04:07:28;67.18;;;35.85;;
17818;SDS011;9034;50.284;19.310;2023-01-19T04:08:30;63.80;;;35.25;;
17818;SDS011;9034;50.284;19.310;2023-01-19T04:09:33;64.93;;;34.88;;
17818;SDS011;9034;50.284;19.310;2023-01-19T04:10:35;62.13;;;35.70;;
17818;SDS011;9034;50.284;19.310;2023-01-19T04:11:37;66.35;;;35.58;;
17818;SDS011;9034;50.284;19.310;2023-01-19T04:12:41;69.57;;;37.58;;
17818;SDS011;9034;50.284;19.310;2023-01-19T04:13:43;65.30;;;36.05;;
17818;SDS011;9034;50.284;19.310;2023-01-19T04:14:46;61.97;;;34.88;;
17818;SDS011;9034;50.284;19.310;2023-01-19T04:15:48;60.40;;;35.38;;
17818;SDS011;9034;50.284;19.310;2023-01-19T04:16:51;76.75;;;39.25;;
17818;SDS011;9034;50.284;19.310;2023-01-19T04:17:53;73.00;;;42.60;;
17818;SDS011;9034;50.284;19.310;2023-01-19T04:18:56;80.20;;;39.90;;
17818;SDS011;9034;50.284;19.310;2023-01-19T04:19:58;76.78;;;41.35;;
17818;SDS011;9034;50.284;19.310;2023-01-19T04:21:01;69.72;;;38.15;;
17818;SDS011;9034;50.284;19.310;2023-01-19T04:22:04;66.85;;;38.03;;
17818;SDS011;9034;50.284;19.310;2023-01-19T04:23:07;72.47;;;39.08;;
17818;SDS011;9034;50.284;19.310;2023-01-19T04:24:09;66.28;;;38.55;;
17818;SDS011;9034;50.284;19.310;2023-01-19T04:25:12;77.57;;;42.67;;
17818;SDS011;9034;50.284;19.310;2023-01-19T04:26:14;77.68;;;42.55;;
17818;SDS011;9034;50.284;19.310;2023-01-19T04:27:17;82.72;;;45.10;;
17818;SDS011;9034;50.284;19.310;2023-01-19T04:28:21;88.47;;;47.28;;
17818;SDS011;9034;50.284;19.310;2023-01-19T04:29:23;80.47;;;43.95;;
17818;SDS011;9034;50.284;19.310;2023-01-19T04:30:25;102.25;;;52.90;;
17818;SDS011;9034;50.284;19.310;2023-01-19T04:31:28;102.22;;;56.05;;
17818;SDS011;9034;50.284;19.310;2023-01-19T04:32:32;92.07;;;50.55;;
17818;SDS011;9034;50.284;19.310;2023-01-19T04:33:34;87.50;;;49.95;;
17818;SDS011;9034;50.284;19.310;2023-01-19T04:34:36;89.28;;;49.35;;
17818;SDS011;9034;50.284;19.310;2023-01-19T04:35:39;99.60;;;54.58;;
17818;SDS011;9034;50.284;19.310;2023-01-19T04:36:42;89.68;;;47.92;;
17818;SDS011;9034;50.284;19.310;2023-01-19T04:37:45;93.13;;;48.92;;
17818;SDS011;9034;50.284;19.310;2023-01-19T04:38:47;85.28;;;48.35;;
17818;SDS011;9034;50.284;19.310;2023-01-19T04:39:50;95.00;;;51.63;;
17818;SDS011;9034;50.284;19.310;2023-01-19T04:40:52;80.85;;;48.13;;
17818;SDS011;9034;50.284;19.310;2023-01-19T04:41:55;102.30;;;53.35;;
17818;SDS011;9034;50.284;19.310;2023-01-19T04:42:57;102.22;;;53.90;;
17818;SDS011;9034;50.284;19.310;2023-01-19T04:44:02;91.82;;;49.13;;
17818;SDS011;9034;50.284;19.310;2023-01-19T04:45:05;98.53;;;53.78;;
17818;SDS011;9034;50.284;19.310;2023-01-19T04:46:09;91.50;;;47.88;;
17818;SDS011;9034;50.284;19.310;2023-01-19T04:47:11;91.38;;;49.85;;
17818;SDS011;9034;50.284;19.310;2023-01-19T04:48:14;95.38;;;48.30;;
17818;SDS011;9034;50.284;19.310;2023-01-19T04:49:16;89.63;;;47.10;;
17818;SDS011;9034;50.284;19.310;2023-01-19T04:50:19;94.35;;;46.85;;
17818;SDS011;9034;50.284;19.310;2023-01-19T04:51:20;86.85;;;45.97;;
17818;SDS011;9034;50.284;19.310;2023-01-19T04:52:23;89.82;;;47.30;;
17818;SDS011;9034;50.284;19.310;2023-01-19T04:53:25;83.10;;;44.85;;
17818;SDS011;9034;50.284;19.310;2023-01-19T04:54:28;86.28;;;47.45;;
17818;SDS011;9034;50.284;19.310;2023-01-19T04:55:30;89.50;;;49.30;;
17818;SDS011;9034;50.284;19.310;2023-01-19T04:56:33;79.35;;;45.63;;
17818;SDS011;9034;50.284;19.310;2023-01-19T04:57:36;73.95;;;41.20;;
17818;SDS011;9034;50.284;19.310;2023-01-19T04:58:38;79.38;;;43.00;;
17818;SDS011;9034;50.284;19.310;2023-01-19T04:59:42;74.22;;;42.03;;
17818;SDS011;9034;50.284;19.310;2023-01-19T05:00:44;82.05;;;42.03;;
17818;SDS011;9034;50.284;19.310;2023-01-19T05:01:46;73.65;;;39.90;;
17818;SDS011;9034;50.284;19.310;2023-01-19T05:02:49;78.25;;;42.20;;
17818;SDS011;9034;50.284;19.310;2023-01-19T05:03:52;77.68;;;40.53;;
17818;SDS011;9034;50.284;19.310;2023-01-19T05:04:54;77.45;;;42.00;;
17818;SDS011;9034;50.284;19.310;2023-01-19T05:05:56;75.85;;;43.33;;
17818;SDS011;9034;50.284;19.310;2023-01-19T05:07:00;73.43;;;40.25;;
17818;SDS011;9034;50.284;19.310;2023-01-19T05:08:01;74.60;;;42.47;;
17818;SDS011;9034;50.284;19.310;2023-01-19T05:09:04;74.22;;;43.63;;
17818;SDS011;9034;50.284;19.310;2023-01-19T05:10:09;79.00;;;40.90;;
17818;SDS011;9034;50.284;19.310;2023-01-19T05:11:12;73.00;;;39.85;;
17818;SDS011;9034;50.284;19.310;2023-01-19T05:12:14;73.03;;;42.63;;
17818;SDS011;9034;50.284;19.310;2023-01-19T05:13:18;82.80;;;45.90;;
17818;SDS011;9034;50.284;19.310;2023-01-19T05:14:20;71.85;;;42.65;;
17818;SDS011;9034;50.284;19.310;2023-01-19T05:15:24;79.53;;;42.03;;
17818;SDS011;9034;50.284;19.310;2023-01-19T05:16:26;75.85;;;42.85;;
17818;SDS011;9034;50.284;19.310;2023-01-19T05:17:29;79.63;;;42.70;;
17818;SDS011;9034;50.284;19.310;2023-01-19T05:18:31;77.88;;;44.78;;
17818;SDS011;9034;50.284;19.310;2023-01-19T05:19:37;80.57;;;42.60;;
17818;SDS011;9034;50.284;19.310;2023-01-19T05:20:38;81.80;;;44.03;;
17818;SDS011;9034;50.284;19.310;2023-01-19T05:21:41;90.32;;;49.53;;
17818;SDS011;9034;50.284;19.310;2023-01-19T05:22:47;92.45;;;48.13;;
17818;SDS011;9034;50.284;19.310;2023-01-19T05:23:50;88.63;;;45.92;;
17818;SDS011;9034;50.284;19.310;2023-01-19T05:24:52;84.85;;;45.70;;
17818;SDS011;9034;50.284;19.310;2023-01-19T05:25:55;81.13;;;44.97;;
17818;SDS011;9034;50.284;19.310;2023-01-19T05:26:57;84.60;;;47.20;;
17818;SDS011;9034;50.284;19.310;2023-01-19T05:28:00;92.30;;;50.35;;
17818;SDS011;9034;50.284;19.310;2023-01-19T05:29:04;91.95;;;44.47;;
17818;SDS011;9034;50.284;19.310;2023-01-19T05:30:06;81.68;;;44.47;;
17818;SDS011;9034;50.284;19.310;2023-01-19T05:31:11;73.50;;;44.28;;
17818;SDS011;9034;50.284;19.310;2023-01-19T05:32:14;80.32;;;43.28;;
17818;SDS011;9034;50.284;19.310;2023-01-19T05:33:16;69.50;;;40.40;;
17818;SDS011;9034;50.284;19.310;2023-01-19T05:34:18;72.05;;;41.25;;
17818;SDS011;9034;50.284;19.310;2023-01-19T05:35:21;71.85;;;40.70;;
17818;SDS011;9034;50.284;19.310;2023-01-19T05:36:36;86.22;;;47.00;;
17818;SDS011;9034;50.284;19.310;2023-01-19T05:37:39;81.88;;;46.63;;
17818;SDS011;9034;50.284;19.310;2023-01-19T05:38:41;86.88;;;49.20;;
17818;SDS011;9034;50.284;19.310;2023-01-19T05:39:44;92.53;;;49.30;;
17818;SDS011;9034;50.284;19.310;2023-01-19T05:40:46;80.50;;;46.42;;
17818;SDS011;9034;50.284;19.310;2023-01-19T05:41:49;85.53;;;46.33;;
17818;SDS011;9034;50.284;19.310;2023-01-19T05:42:51;82.35;;;45.47;;
17818;SDS011;9034;50.284;19.310;2023-01-19T05:43:54;87.50;;;48.80;;
17818;SDS011;9034;50.284;19.310;2023-01-19T05:44:56;72.13;;;43.35;;
17818;SDS011;9034;50.284;19.310;2023-01-19T05:45:59;65.43;;;37.67;;
17818;SDS011;9034;50.284;19.310;2023-01-19T05:47:03;74.78;;;39.70;;
17818;SDS011;9034;50.284;19.310;2023-01-19T05:48:07;68.95;;;40.65;;
17818;SDS011;9034;50.284;19.310;2023-01-19T05:49:10;76.78;;;41.58;;
17818;SDS011;9034;50.284;19.310;2023-01-19T05:50:13;69.88;;;40.50;;
17818;SDS011;9034;50.284;19.310;2023-01-19T05:51:16;72.70;;;40.08;;
17818;SDS011;9034;50.284;19.310;2023-01-19T05:52:18;77.00;;;38.95;;
17818;SDS011;9034;50.284;19.310;2023-01-19T05:53:20;67.78;;;39.95;;
17818;SDS011;9034;50.284;19.310;2023-01-19T05:54:23;75.65;;;42.78;;
17818;SDS011;9034;50.284;19.310;2023-01-19T05:55:25;75.60;;;40.95;;
17818;SDS011;9034;50.284;19.310;2023-01-19T05:56:29;62.45;;;39.25;;
17818;SDS011;9034;50.284;19.310;2023-01-19T05:57:31;73.82;;;43.65;;
17818;SDS011;9034;50.284;19.310;2023-01-19T05:58:33;70.82;;;40.40;;
17818;SDS011;9034;50.284;19.310;2023-01-19T05:59:38;78.68;;;41.67;;
17818;SDS011;9034;50.284;19.310;2023-01-19T06:00:41;79.03;;;41.25;;
17818;SDS011;9034;50.284;19.310;2023-01-19T06:01:43;68.35;;;40.15;;
17818;SDS011;9034;50.284;19.310;2023-01-19T06:02:47;74.47;;;41.72;;
17818;SDS011;9034;50.284;19.310;2023-01-19T06:03:49;80.45;;;44.72;;
17818;SDS011;9034;50.284;19.310;2023-01-19T06:04:52;75.05;;;42.58;;
17818;SDS011;9034;50.284;19.310;2023-01-19T06:05:55;76.68;;;43.92;;
17818;SDS011;9034;50.284;19.310;2023-01-19T06:06:58;82.45;;;42.75;;
17818;SDS011;9034;50.284;19.310;2023-01-19T06:08:00;76.90;;;42.35;;
17818;SDS011;9034;50.284;19.310;2023-01-19T06:09:03;76.55;;;40.47;;
17818;SDS011;9034;50.284;19.310;2023-01-19T06:10:05;79.07;;;42.45;;
17818;SDS011;9034;50.284;19.310;2023-01-19T06:11:09;72.72;;;42.85;;
17818;SDS011;9034;50.284;19.310;2023-01-19T06:12:11;75.07;;;41.20;;
17818;SDS011;9034;50.284;19.310;2023-01-19T06:13:14;76.57;;;40.92;;
17818;SDS011;9034;50.284;19.310;2023-01-19T06:14:16;69.85;;;39.22;;
17818;SDS011;9034;50.284;19.310;2023-01-19T06:15:19;71.45;;;38.75;;
17818;SDS011;9034;50.284;19.310;2023-01-19T06:16:20;65.15;;;38.30;;
17818;SDS011;9034;50.284;19.310;2023-01-19T06:17:23;64.88;;;36.60;;
17818;SDS011;9034;50.284;19.310;2023-01-19T06:18:26;69.25;;;38.92;;